Time;durP1;ratioP1;P1;durP2;ratioP2;P2;SDS_P1;SDS_P2;PMS_P1;PMS_P2;Temp;Humidity;BMP_temperature;BMP_pressure;BME280_temperature;BME280_humidity;BME280_pressure;Samples;Min_cycle;Max_cycle;Signal;HPM_P1;HPM_P2
2020/12/30 00:03:57;;;;;;;18.52;8.00;;;;;;;-1.39;65.42;99346.88;10459162;28;20049;-55
2020/12/30 00:08:59;;;;;;;14.55;6.05;;;;;;;-1.31;65.44;99334.50;10458563;28;20114;-52
2020/12/30 00:14:01;;;;;;;17.13;8.13;;;;;;;-1.20;65.28;99346.91;10458507;28;20068;-50
2020/12/30 00:19:03;;;;;;;23.33;9.07;;;;;;;-1.13;65.10;99337.19;10459135;28;20046;-52
2020/12/30 00:24:06;;;;;;;18.10;8.70;;;;;;;-1.07;65.14;99327.44;10458730;28;20075;-50
2020/12/30 00:29:07;;;;;;;22.07;9.90;;;;;;;-1.09;65.25;99333.56;10458724;28;20110;-54
2020/12/30 00:34:09;;;;;;;25.15;10.80;;;;;;;-0.99;65.24;99346.00;10457913;28;20103;-53
2020/12/30 00:39:11;;;;;;;27.58;12.20;;;;;;;-0.88;65.28;99352.44;10467427;28;20054;-51
2020/12/30 00:44:13;;;;;;;21.63;9.05;;;;;;;-0.90;64.99;99355.06;10499489;28;20811;-51
2020/12/30 00:49:15;;;;;;;27.73;10.75;;;;;;;-0.85;65.08;99347.16;10463922;28;20049;-53
2020/12/30 00:54:18;;;;;;;32.72;12.10;;;;;;;-0.76;64.85;99360.47;10457183;28;20056;-52
2020/12/30 00:59:20;;;;;;;28.00;11.53;;;;;;;-0.61;65.03;99363.28;10455781;28;20052;-54
2020/12/30 01:04:26;;;;;;;16.67;6.20;;;;;;;-0.55;64.78;99371.59;10456196;28;20766;-54
2020/12/30 01:09:29;;;;;;;21.73;10.32;;;;;;;-0.56;64.59;99379.41;10457200;28;20528;-53
2020/12/30 01:14:32;;;;;;;18.13;8.17;;;;;;;-0.53;64.52;99385.25;10456412;28;20506;-53
2020/12/30 01:19:33;;;;;;;21.52;9.25;;;;;;;-0.50;64.51;99379.97;10456953;28;20052;-50
2020/12/30 01:24:36;;;;;;;24.77;9.77;;;;;;;-0.52;64.24;99381.78;10456800;28;20045;-51
2020/12/30 01:29:37;;;;;;;18.23;7.53;;;;;;;-0.55;64.29;99389.69;10456634;28;20425;-52
2020/12/30 01:34:39;;;;;;;17.42;6.97;;;;;;;-0.56;64.09;99395.72;10456033;28;20114;-51
2020/12/30 01:39:41;;;;;;;21.52;8.68;;;;;;;-0.58;64.55;99407.88;10469701;28;20048;-53
2020/12/30 01:44:43;;;;;;;18.40;9.05;;;;;;;-0.55;64.52;99400.00;10497643;28;20510;-52
2020/12/30 01:49:45;;;;;;;15.02;5.68;;;;;;;-0.57;64.43;99383.72;10459533;28;20094;-51
2020/12/30 01:54:47;;;;;;;16.63;6.72;;;;;;;-0.63;64.73;99386.59;10493964;28;20070;-52
2020/12/30 01:59:49;;;;;;;23.00;9.70;;;;;;;-0.68;64.63;99382.53;10507751;28;20156;-51
2020/12/30 02:04:52;;;;;;;22.08;8.73;;;;;;;-0.60;64.43;99396.78;10497378;28;20114;-51
2020/12/30 02:09:57;;;;;;;19.80;6.83;;;;;;;-0.52;64.59;99401.63;10463915;28;20461;-53
2020/12/30 02:14:58;;;;;;;18.75;7.38;;;;;;;-0.65;64.14;99401.28;10464002;28;20291;-53
2020/12/30 02:20:00;;;;;;;20.00;8.80;;;;;;;-0.76;64.68;99399.19;10463705;28;20049;-51
2020/12/30 02:25:02;;;;;;;18.88;8.57;;;;;;;-0.62;64.82;99390.84;10465857;28;20053;-55
2020/12/30 02:30:05;;;;;;;15.98;6.68;;;;;;;-0.52;64.48;99397.28;10463932;28;20049;-53
2020/12/30 02:35:07;;;;;;;15.35;6.30;;;;;;;-0.53;64.36;99400.75;10462028;28;20110;-53
2020/12/30 02:40:10;;;;;;;19.23;8.20;;;;;;;-0.58;64.54;99397.56;10482770;28;20101;-55
2020/12/30 02:45:11;;;;;;;21.05;8.10;;;;;;;-0.55;64.66;99396.59;10506506;28;20048;-51
2020/12/30 02:50:13;;;;;;;21.38;8.95;;;;;;;-0.60;64.27;99393.38;10464900;28;20370;-52
2020/12/30 02:55:16;;;;;;;24.67;9.32;;;;;;;-0.62;64.50;99390.84;10461792;28;20091;-53
2020/12/30 03:00:17;;;;;;;21.85;9.05;;;;;;;-0.54;64.50;99388.75;10461767;28;20114;-51
2020/12/30 03:05:19;;;;;;;16.08;6.78;;;;;;;-0.39;64.38;99391.56;10460844;28;20128;-51
2020/12/30 03:10:21;;;;;;;23.08;10.43;;;;;;;-0.48;63.80;99392.81;10461213;28;20049;-51
2020/12/30 03:15:23;;;;;;;22.40;9.93;;;;;;;-0.55;64.20;99389.69;10448994;28;20049;-52
2020/12/30 03:20:25;;;;;;;20.70;8.98;;;;;;;-0.60;64.28;99389.03;10419469;28;20056;-52
2020/12/30 03:25:27;;;;;;;23.05;8.20;;;;;;;-0.68;64.58;99391.09;10420024;28;20107;-50
2020/12/30 03:30:29;;;;;;;19.88;9.68;;;;;;;-0.74;64.45;99383.63;10418839;28;20387;-52
2020/12/30 03:35:31;;;;;;;22.77;8.95;;;;;;;-0.76;64.39;99382.88;10457419;28;20053;-50
2020/12/30 03:40:33;;;;;;;16.58;7.35;;;;;;;-0.74;64.67;99381.06;10480794;28;20055;-52
2020/12/30 03:45:35;;;;;;;24.00;10.40;;;;;;;-0.72;64.91;99381.81;10491176;28;20049;-51
2020/12/30 03:50:37;;;;;;;21.23;8.75;;;;;;;-0.63;64.75;99383.16;10460141;28;20049;-52
2020/12/30 03:55:40;;;;;;;20.70;9.40;;;;;;;-0.47;64.47;99384.97;10459878;28;20474;-51
2020/12/30 04:00:41;;;;;;;13.75;6.82;;;;;;;-0.43;64.50;99398.63;10458491;28;20057;-52
2020/12/30 04:05:43;;;;;;;15.77;7.80;;;;;;;-0.41;64.42;99399.38;10459224;28;20542;-53
2020/12/30 04:10:46;;;;;;;25.80;11.00;;;;;;;-0.42;64.38;99396.88;10458873;28;20041;-50
2020/12/30 04:15:47;;;;;;;23.13;8.73;;;;;;;-0.46;64.16;99416.84;10455979;28;20084;-53
2020/12/30 04:20:49;;;;;;;20.60;9.27;;;;;;;-0.51;64.29;99408.44;10459335;28;20052;-52
2020/12/30 04:25:52;;;;;;;24.80;8.13;;;;;;;-0.60;64.19;99420.00;10458897;28;20114;-51
2020/12/30 04:30:53;;;;;;;25.60;10.70;;;;;;;-0.66;64.42;99409.97;10459122;28;20045;-50
2020/12/30 04:35:55;;;;;;;29.25;12.15;;;;;;;-0.71;64.54;99406.72;10458324;28;20053;-53
2020/12/30 04:40:59;;;;;;;15.10;5.43;;;;;;;-0.75;64.38;99400.88;10482378;28;20055;-50
2020/12/30 04:46:00;;;;;;;32.75;12.50;;;;;;;-0.71;64.74;99414.47;10490340;28;20482;-51
2020/12/30 04:51:02;;;;;;;31.42;10.65;;;;;;;-0.63;64.44;99419.31;10457311;28;20049;-51
2020/12/30 04:56:05;;;;;;;19.90;7.65;;;;;;;-0.74;64.77;99433.53;10457680;28;20151;-51
2020/12/30 05:01:09;;;;;;;15.37;7.07;;;;;;;-0.80;64.69;99453.59;10455467;28;20067;-53
2020/12/30 05:06:14;;;;;;;24.77;10.02;;;;;;;-0.77;64.83;99456.03;10454904;28;20045;-51
2020/12/30 05:11:16;;;;;;;18.92;7.15;;;;;;;-0.81;65.09;99457.91;10456861;28;20111;-52
2020/12/30 05:16:20;;;;;;;37.13;13.05;;;;;;;-0.74;64.99;99461.94;10456890;28;20056;-51
2020/12/30 05:21:21;;;;;;;33.97;12.15;;;;;;;-0.61;64.72;99469.97;10457082;28;20053;-51
2020/12/30 05:26:25;;;;;;;18.10;6.90;;;;;;;-0.59;64.83;99467.31;10462170;28;20044;-51
2020/12/30 05:31:26;;;;;;;28.77;12.32;;;;;;;-0.57;65.06;99470.69;10468313;28;20051;-58
2020/12/30 05:36:28;;;;;;;27.40;10.63;;;;;;;-0.45;64.60;99464.97;10465659;28;20064;-52
2020/12/30 05:41:31;;;;;;;31.73;11.63;;;;;;;-0.35;64.95;99468.00;10493524;28;20047;-53
2020/12/30 05:46:32;;;;;;;28.17;11.63;;;;;;;-0.19;64.03;99468.97;10493835;28;20091;-51
2020/12/30 05:51:34;;;;;;;28.27;11.27;;;;;;;-0.11;64.43;99474.66;10464773;28;20052;-53
2020/12/30 05:56:38;;;;;;;36.42;12.98;;;;;;;-0.02;64.73;99479.41;10464781;28;20048;-51
2020/12/30 06:01:44;;;;;;;;;;;;;;;0.04;64.28;99480.88;10465038;28;20064;-52
2020/12/30 06:06:48;;;;;;;35.20;12.73;;;;;;;0.10;64.17;99487.53;10463034;28;19925;-51
2020/12/30 06:11:52;;;;;;;27.92;11.98;;;;;;;0.15;64.10;99493.28;10463172;28;20041;-55
2020/12/30 06:16:56;;;;;;;32.05;14.30;;;;;;;0.13;64.25;99510.66;10463455;28;20079;-52
2020/12/30 06:21:58;;;;;;;27.08;9.95;;;;;;;0.10;64.03;99510.78;10463221;28;20037;-53
2020/12/30 06:27:03;;;;;;;25.23;9.60;;;;;;;0.02;64.11;99511.13;10462707;28;20052;-50
2020/12/30 06:32:05;;;;;;;28.77;11.57;;;;;;;0.06;64.50;99522.16;10462044;28;20044;-51
2020/12/30 06:37:07;;;;;;;31.13;13.02;;;;;;;0.12;64.40;99527.03;10462308;28;20052;-53
2020/12/30 06:42:09;;;;;;;27.85;8.73;;;;;;;0.28;64.31;99529.75;10496957;28;20046;-51
2020/12/30 06:47:12;;;;;;;37.50;13.73;;;;;;;0.30;64.28;99536.53;10487102;28;20540;-52
2020/12/30 06:52:26;;;;;;;28.97;11.87;;;;;;;0.33;64.59;99536.41;10435054;28;20045;-51
2020/12/30 06:57:39;;;;;;;33.22;12.70;;;;;;;0.38;64.55;99525.88;10419374;28;20069;-52
2020/12/30 07:02:41;;;;;;;32.13;14.90;;;;;;;0.48;64.33;99532.28;10419776;28;20053;-50
2020/12/30 07:07:42;;;;;;;37.22;15.13;;;;;;;0.71;64.33;99536.38;10419771;28;20049;-52
2020/12/30 07:12:45;;;;;;;32.50;12.60;;;;;;;0.73;64.08;99547.47;10419459;28;20170;-52
2020/12/30 07:17:48;;;;;;;34.05;13.02;;;;;;;0.71;63.88;99557.09;10428102;28;20099;-52
2020/12/30 07:22:50;;;;;;;35.38;13.18;;;;;;;0.62;64.49;99566.13;10419646;28;20045;-53
2020/12/30 07:27:54;;;;;;;20.05;8.43;;;;;;;0.54;64.44;99567.38;10459509;28;20056;-52
2020/12/30 07:32:57;;;;;;;28.08;10.65;;;;;;;0.34;64.51;99563.97;10460087;28;20067;-50
2020/12/30 07:38:01;;;;;;;34.45;12.98;;;;;;;0.37;64.61;99568.13;10460932;28;20064;-57
2020/12/30 07:43:03;;;;;;;39.03;13.07;;;;;;;0.47;64.63;99568.56;10419384;28;20045;-51
2020/12/30 07:48:08;;;;;;;36.85;14.60;;;;;;;0.60;64.30;99569.69;10442490;28;20049;-53
2020/12/30 07:53:17;;;;;;;37.78;14.38;;;;;;;0.68;64.68;99588.28;10459447;28;20440;-51
2020/12/30 07:58:20;;;;;;;33.33;13.05;;;;;;;0.76;64.34;99588.75;10459115;28;20061;-51
2020/12/30 08:03:22;;;;;;;35.20;13.25;;;;;;;0.81;64.30;99593.72;10459470;28;20084;-50
2020/12/30 08:08:24;;;;;;;42.45;12.38;;;;;;;0.78;64.49;99589.53;10459540;28;20052;-51
2020/12/30 08:13:27;;;;;;;38.78;15.30;;;;;;;0.74;64.26;99575.06;10459061;28;20052;-51
2020/12/30 08:18:28;;;;;;;49.37;15.90;;;;;;;0.81;64.25;99571.25;10458947;28;20049;-52
2020/12/30 08:23:30;;;;;;;41.72;15.32;;;;;;;0.97;64.47;99578.28;10458849;28;20036;-49
2020/12/30 08:28:33;;;;;;;40.53;15.50;;;;;;;0.98;64.42;99574.78;10458333;28;20385;-52
2020/12/30 08:33:37;;;;;;;41.42;14.57;;;;;;;0.99;64.54;99589.44;10457045;28;20052;-50
2020/12/30 08:38:40;;;;;;;34.80;13.48;;;;;;;0.94;64.46;99588.78;10463001;28;20044;-50
2020/12/30 08:43:47;;;;;;;40.35;16.27;;;;;;;1.01;64.61;99592.75;10498969;28;20052;-51
2020/12/30 08:48:51;;;;;;;54.83;17.27;;;;;;;1.01;64.78;99592.75;10471348;28;20052;-50
2020/12/30 08:53:52;;;;;;;50.85;20.35;;;;;;;1.07;64.45;99595.06;10457100;28;20075;-58
2020/12/30 08:58:56;;;;;;;52.65;17.50;;;;;;;1.16;64.79;99594.63;10457040;28;20511;-51
2020/12/30 09:04:08;;;;;;;;;;;;;;;1.18;64.45;99592.81;10457415;28;20041;-53
2020/12/30 09:09:11;;;;;;;43.25;12.57;;;;;;;1.13;64.38;99584.41;10455604;28;19947;-53
2020/12/30 09:14:15;;;;;;;46.43;16.80;;;;;;;1.24;65.05;99581.31;10457136;28;20056;-52
2020/12/30 09:19:18;;;;;;;37.55;14.85;;;;;;;1.43;64.73;99578.66;10458308;28;20053;-51
2020/12/30 09:24:20;;;;;;;31.50;12.82;;;;;;;1.38;64.82;99584.88;10456677;28;20044;-51
2020/12/30 09:29:23;;;;;;;51.90;19.75;;;;;;;1.21;65.23;99581.47;10457438;28;20087;-51
2020/12/30 09:34:26;;;;;;;41.05;16.27;;;;;;;1.24;64.98;99581.31;10455940;28;20375;-51
2020/12/30 09:39:28;;;;;;;41.33;17.20;;;;;;;1.37;65.63;99572.00;10448812;28;20453;-51
2020/12/30 09:44:31;;;;;;;39.97;14.70;;;;;;;1.51;65.91;99566.13;10497885;28;20071;-51
2020/12/30 09:49:42;;;;;;;49.22;17.15;;;;;;;1.56;65.22;99571.94;10453525;28;20044;-52
2020/12/30 09:54:44;;;;;;;45.90;16.48;;;;;;;1.58;65.28;99570.13;10456950;28;20057;-51
2020/12/30 09:59:47;;;;;;;47.10;19.25;;;;;;;1.68;65.58;99566.13;10455266;28;20607;-53
2020/12/30 10:04:48;;;;;;;51.60;17.08;;;;;;;1.82;65.28;99568.88;10455498;28;20497;-53
2020/12/30 10:09:52;;;;;;;48.20;18.63;;;;;;;1.76;64.66;99576.97;10456140;28;20052;-51
2020/12/30 10:14:54;;;;;;;;;;;;;;;1.77;64.68;99576.03;10462562;28;20101;-52
2020/12/30 10:19:56;;;;;;;45.67;18.33;;;;;;;1.77;64.39;99580.38;10463123;28;19983;-53
2020/12/30 10:24:58;;;;;;;54.72;17.25;;;;;;;1.79;64.54;99588.94;10495544;28;20060;-52
2020/12/30 10:30:00;;;;;;;45.55;18.92;;;;;;;1.80;64.54;99586.25;10503420;28;20063;-50
2020/12/30 10:35:02;;;;;;;44.47;16.10;;;;;;;1.83;64.40;99591.28;10468683;28;20060;-52
2020/12/30 10:40:05;;;;;;;48.88;18.58;;;;;;;1.69;64.86;99596.31;10480005;28;20048;-52
2020/12/30 10:45:07;;;;;;;40.05;15.20;;;;;;;1.60;64.82;99592.44;10503438;28;20052;-50
2020/12/30 10:50:09;;;;;;;50.35;17.35;;;;;;;1.65;65.26;99591.38;10462908;28;20393;-52
2020/12/30 10:55:10;;;;;;;40.60;15.80;;;;;;;1.83;64.55;99596.44;10420854;28;20061;-52
2020/12/30 11:00:13;;;;;;;52.20;18.17;;;;;;;1.84;64.53;99587.75;10420020;28;20057;-52
2020/12/30 11:05:14;;;;;;;48.63;17.52;;;;;;;1.87;65.05;99586.75;10459787;28;20056;-51
2020/12/30 11:10:16;;;;;;;41.13;15.43;;;;;;;1.83;64.90;99595.63;10462287;28;20056;-52
2020/12/30 11:15:19;;;;;;;41.30;17.02;;;;;;;1.88;65.10;99592.78;10455156;28;20367;-52
2020/12/30 11:20:20;;;;;;;43.83;17.70;;;;;;;1.83;64.77;99601.63;10454252;28;20056;-53
2020/12/30 11:25:22;;;;;;;38.55;15.68;;;;;;;1.78;64.75;99598.44;10460463;28;20049;-51
2020/12/30 11:30:24;;;;;;;41.40;16.63;;;;;;;1.99;64.67;99600.84;10460184;28;20103;-50
2020/12/30 11:35:26;;;;;;;48.63;16.92;;;;;;;2.12;65.25;99599.28;10459855;28;20060;-53
2020/12/30 11:40:28;;;;;;;41.63;15.15;;;;;;;2.22;64.82;99603.09;10480645;28;20098;-59
2020/12/30 11:45:30;;;;;;;48.45;17.80;;;;;;;2.32;65.14;99594.84;10499226;28;20064;-53
2020/12/30 11:50:33;;;;;;;42.03;16.30;;;;;;;2.25;64.68;99589.97;10460005;28;20053;-51
2020/12/30 11:55:36;;;;;;;39.30;16.10;;;;;;;2.05;64.49;99595.34;10459837;28;20485;-51
2020/12/30 12:00:39;;;;;;;26.25;10.38;;;;;;;1.87;64.48;99591.13;10459460;28;20477;-51
2020/12/30 12:05:42;;;;;;;39.85;16.65;;;;;;;1.66;64.56;99591.28;10459061;28;20398;-51
2020/12/30 12:10:43;;;;;;;45.85;14.40;;;;;;;1.59;65.37;99590.75;10459011;28;20102;-51
2020/12/30 12:15:46;;;;;;;37.35;14.30;;;;;;;1.49;64.64;99592.13;10484507;28;20056;-53
2020/12/30 12:20:47;;;;;;;37.17;13.90;;;;;;;1.38;64.91;99603.00;10499213;28;20101;-51
2020/12/30 12:25:49;;;;;;;47.60;14.65;;;;;;;1.28;65.42;99594.03;10498893;28;20063;-51
2020/12/30 12:30:52;;;;;;;45.47;17.10;;;;;;;1.32;65.29;99594.69;10498829;28;20047;-51
2020/12/30 12:35:53;;;;;;;43.55;15.63;;;;;;;1.34;64.81;99604.09;10460754;28;20084;-53
2020/12/30 12:40:55;;;;;;;46.05;16.60;;;;;;;1.39;65.29;99601.28;10483035;28;20465;-51
2020/12/30 12:45:57;;;;;;;47.63;17.65;;;;;;;1.42;65.12;99600.25;10494274;28;20075;-51
2020/12/30 12:50:59;;;;;;;37.55;13.65;;;;;;;1.51;64.46;99613.63;10458523;28;20059;-53
2020/12/30 12:56:01;;;;;;;40.83;13.32;;;;;;;1.40;64.45;99608.13;10457210;28;20482;-53
2020/12/30 13:01:08;;;;;;;50.00;18.92;;;;;;;1.29;65.06;99600.91;10457328;28;20065;-53
2020/12/30 13:06:09;;;;;;;45.80;16.48;;;;;;;1.28;64.85;99603.53;10457335;28;20397;-52
2020/12/30 13:11:11;;;;;;;44.00;15.95;;;;;;;1.28;64.86;99593.19;10457490;28;20536;-53
2020/12/30 13:16:13;;;;;;;44.25;17.55;;;;;;;1.19;64.68;99589.28;10457168;28;20437;-52
2020/12/30 13:21:15;;;;;;;32.97;13.10;;;;;;;1.19;64.79;99609.16;10456696;28;20053;-54
2020/12/30 13:26:17;;;;;;;41.42;17.45;;;;;;;1.12;64.82;99614.63;10456267;28;20441;-53
2020/12/30 13:31:19;;;;;;;50.28;19.70;;;;;;;1.23;64.92;99606.38;10454986;28;20060;-53
2020/12/30 13:36:23;;;;;;;44.42;15.57;;;;;;;1.29;64.65;99610.38;10439907;28;20075;-53
2020/12/30 13:41:25;;;;;;;52.17;20.10;;;;;;;1.16;64.48;99607.56;10456553;28;20056;-59
2020/12/30 13:46:28;;;;;;;46.30;16.70;;;;;;;1.09;64.82;99612.19;10457140;28;20049;-54
2020/12/30 13:51:29;;;;;;;40.47;14.77;;;;;;;1.08;64.74;99620.06;10464257;28;20052;-55
2020/12/30 13:56:31;;;;;;;49.03;18.70;;;;;;;1.02;64.59;99613.41;10464188;28;20482;-53
2020/12/30 14:01:33;;;;;;;39.40;14.20;;;;;;;1.10;64.76;99613.03;10463524;28;20045;-54
2020/12/30 14:06:35;;;;;;;43.85;17.65;;;;;;;1.10;64.72;99607.84;10462936;28;20048;-53
2020/12/30 14:11:37;;;;;;;53.10;18.35;;;;;;;1.14;64.69;99619.75;10463072;28;20481;-55
2020/12/30 14:16:43;;;;;;;36.75;13.70;;;;;;;1.22;64.70;99612.44;10463128;28;20059;-54
2020/12/30 14:21:48;;;;;;;39.70;14.48;;;;;;;1.14;64.49;99599.06;10463098;28;20049;-55
2020/12/30 14:26:52;;;;;;;38.22;13.93;;;;;;;1.07;64.49;99592.47;10464198;28;20102;-54
2020/12/30 14:31:55;;;;;;;45.63;15.73;;;;;;;0.95;64.62;99611.16;10461916;28;20060;-55
2020/12/30 14:36:58;;;;;;;43.95;14.32;;;;;;;0.92;64.76;99619.91;10421331;28;20052;-53
2020/12/30 14:41:59;;;;;;;47.57;18.73;;;;;;;0.89;64.79;99601.94;10486213;28;20118;-53
2020/12/30 14:47:06;;;;;;;25.15;9.98;;;;;;;0.82;64.71;99629.84;10490452;28;20492;-53
2020/12/30 14:52:08;;;;;;;53.70;18.98;;;;;;;0.67;64.65;99618.47;10461317;28;20041;-54
2020/12/30 14:57:10;;;;;;;28.17;9.60;;;;;;;0.52;64.92;99620.91;10461329;28;20107;-54
2020/12/30 15:02:12;;;;;;;39.65;15.05;;;;;;;0.47;65.03;99617.72;10460304;28;20541;-55
2020/12/30 15:07:14;;;;;;;47.30;17.33;;;;;;;0.53;65.08;99625.19;10461286;28;20060;-53
2020/12/30 15:12:16;;;;;;;47.35;16.77;;;;;;;0.52;64.75;99626.09;10462496;28;20041;-54
2020/12/30 15:17:19;;;;;;;48.63;16.35;;;;;;;0.49;64.64;99631.41;10461259;28;20076;-53
2020/12/30 15:22:21;;;;;;;44.88;15.90;;;;;;;0.44;65.23;99632.44;10461321;28;20055;-55
2020/12/30 15:27:22;;;;;;;29.35;7.35;;;;;;;0.50;64.88;99646.03;10460464;28;20533;-54
2020/12/30 15:32:25;;;;;;;48.58;17.95;;;;;;;0.42;65.01;99618.75;10459657;28;20060;-53
2020/12/30 15:37:26;;;;;;;42.15;14.93;;;;;;;0.41;65.26;99619.66;10461031;28;20057;-53
2020/12/30 15:42:28;;;;;;;68.07;20.67;;;;;;;0.47;64.77;99610.78;10496303;28;20389;-54
2020/12/30 15:47:30;;;;;;;54.60;18.33;;;;;;;0.50;65.08;99615.81;10476971;28;20110;-54
2020/12/30 15:52:32;;;;;;;46.58;18.20;;;;;;;0.56;65.36;99623.31;10459853;28;20072;-54
2020/12/30 15:57:34;;;;;;;64.75;19.90;;;;;;;0.65;64.49;99615.13;10459008;28;20489;-54
2020/12/30 16:02:36;;;;;;;55.72;17.17;;;;;;;0.55;65.19;99602.66;10458292;28;20076;-53
2020/12/30 16:07:38;;;;;;;55.42;19.35;;;;;;;0.53;64.91;99591.56;10459905;28;20063;-53
2020/12/30 16:12:39;;;;;;;58.65;19.10;;;;;;;0.47;64.98;99605.63;10458757;28;20489;-55
2020/12/30 16:17:42;;;;;;;62.95;19.10;;;;;;;0.47;64.63;99591.84;10457828;28;20060;-52
2020/12/30 16:22:43;;;;;;;53.83;19.70;;;;;;;0.38;64.75;99581.00;10426745;28;20049;-54
2020/12/30 16:27:45;;;;;;;55.35;18.38;;;;;;;0.37;64.90;99599.16;10415484;28;20049;-54
2020/12/30 16:32:48;;;;;;;47.63;17.60;;;;;;;0.45;65.06;99603.09;10429968;28;20044;-55
2020/12/30 16:37:51;;;;;;;52.88;18.48;;;;;;;0.43;64.50;99606.63;10458109;28;20386;-54
2020/12/30 16:42:52;;;;;;;24.63;9.27;;;;;;;0.37;64.74;99610.38;10497693;28;20052;-55
2020/12/30 16:47:55;;;;;;;24.60;7.20;;;;;;;0.31;64.54;99618.41;10475093;28;20512;-54
2020/12/30 16:52:56;;;;;;;48.05;16.88;;;;;;;0.22;64.56;99605.88;10456033;28;20051;-52
2020/12/30 16:57:58;;;;;;;54.80;16.55;;;;;;;0.16;64.24;99600.97;10457102;28;20071;-54
2020/12/30 17:03:00;;;;;;;45.13;13.98;;;;;;;0.15;64.50;99604.44;10456078;28;20037;-54
2020/12/30 17:08:02;;;;;;;51.30;15.52;;;;;;;0.13;64.57;99601.94;10456835;28;20102;-54
2020/12/30 17:13:04;;;;;;;43.00;14.38;;;;;;;0.03;64.60;99610.16;10456569;28;20041;-54
2020/12/30 17:18:06;;;;;;;36.28;14.48;;;;;;;-0.01;64.87;99602.53;10456883;28;20493;-54
2020/12/30 17:23:08;;;;;;;46.65;16.63;;;;;;;-0.02;64.79;99590.53;10456267;28;20377;-56
2020/12/30 17:28:09;;;;;;;36.47;10.88;;;;;;;-0.04;64.70;99594.06;10456490;28;20059;-58
2020/12/30 17:33:12;;;;;;;39.00;10.07;;;;;;;-0.09;64.67;99602.03;10454709;28;20037;-53
2020/12/30 17:38:14;;;;;;;48.20;13.30;;;;;;;-0.16;64.78;99595.44;10457190;28;20059;-54
2020/12/30 17:43:16;;;;;;;43.45;13.57;;;;;;;-0.15;64.92;99604.06;10497353;28;20055;-53
2020/12/30 17:48:18;;;;;;;34.92;14.18;;;;;;;-0.17;65.29;99598.94;10469453;28;20346;-55
2020/12/30 17:53:20;;;;;;;45.20;14.65;;;;;;;-0.11;64.77;99606.44;10456880;28;20064;-52
2020/12/30 17:58:21;;;;;;;42.67;14.15;;;;;;;-0.04;64.83;99589.75;10456577;28;20061;-54
2020/12/30 18:03:24;;;;;;;29.40;9.38;;;;;;;-0.08;64.55;99585.63;10455658;28;20059;-54
2020/12/30 18:08:26;;;;;;;32.95;12.23;;;;;;;-0.08;65.20;99597.72;10456014;28;20102;-55
2020/12/30 18:13:27;;;;;;;44.85;17.90;;;;;;;-0.03;65.02;99582.84;10456106;28;20571;-58
2020/12/30 18:18:30;;;;;;;36.90;13.15;;;;;;;-0.05;65.02;99582.06;10455101;28;20057;-54
2020/12/30 18:23:31;;;;;;;43.42;10.82;;;;;;;-0.04;64.80;99579.41;10454540;28;20067;-53
2020/12/30 18:28:33;;;;;;;52.20;16.90;;;;;;;-0.13;64.70;99584.13;10452133;28;20138;-54
2020/12/30 18:33:35;;;;;;;32.83;11.65;;;;;;;-0.14;65.09;99593.63;10455571;28;20051;-53
2020/12/30 18:38:37;;;;;;;26.90;9.05;;;;;;;-0.09;64.67;99596.88;10468189;28;20044;-54
2020/12/30 18:43:39;;;;;;;53.30;13.43;;;;;;;-0.16;64.94;99595.44;10504288;28;20106;-55
2020/12/30 18:48:41;;;;;;;38.25;10.10;;;;;;;-0.25;65.03;99586.38;10475041;28;20048;-54
2020/12/30 18:53:44;;;;;;;19.88;7.70;;;;;;;-0.24;64.98;99576.88;10461602;28;20044;-57
2020/12/30 18:58:45;;;;;;;41.50;12.10;;;;;;;-0.25;65.09;99570.00;10461586;28;20134;-53
2020/12/30 19:03:48;;;;;;;35.47;11.95;;;;;;;-0.28;64.86;99564.97;10459649;28;20072;-53
2020/12/30 19:08:50;;;;;;;34.83;12.97;;;;;;;-0.28;64.75;99554.63;10462652;28;20059;-54
2020/12/30 19:13:52;;;;;;;35.47;12.10;;;;;;;-0.34;65.26;99554.91;10456643;28;20450;-54
2020/12/30 19:18:55;;;;;;;44.00;13.55;;;;;;;-0.26;65.34;99548.50;10460445;28;20067;-54
2020/12/30 19:23:57;;;;;;;32.47;10.60;;;;;;;-0.20;64.71;99549.16;10460646;28;20144;-56
2020/12/30 19:28:58;;;;;;;35.67;13.05;;;;;;;-0.13;64.97;99556.56;10460188;28;20061;-60
2020/12/30 19:34:01;;;;;;;37.78;11.10;;;;;;;-0.13;64.79;99546.22;10460365;28;20135;-54
2020/12/30 19:39:05;;;;;;;41.00;13.68;;;;;;;-0.17;65.20;99552.44;10468899;28;20056;-53
2020/12/30 19:44:06;;;;;;;24.77;10.48;;;;;;;-0.21;64.77;99545.72;10500953;28;20047;-53
2020/12/30 19:49:09;;;;;;;23.33;6.63;;;;;;;-0.19;65.04;99549.06;10471397;28;20140;-54
2020/12/30 19:54:10;;;;;;;37.28;12.60;;;;;;;-0.21;65.12;99543.16;10460879;28;20055;-58
2020/12/30 19:59:12;;;;;;;29.60;12.50;;;;;;;-0.18;65.01;99540.44;10460499;28;20482;-54
2020/12/30 20:04:14;;;;;;;29.38;11.75;;;;;;;-0.15;64.66;99535.13;10459785;28;20071;-54
2020/12/30 20:09:17;;;;;;;35.92;13.70;;;;;;;-0.12;64.84;99537.59;10460651;28;20519;-52
2020/12/30 20:14:19;;;;;;;26.00;11.05;;;;;;;-0.06;64.62;99550.22;10460511;28;20076;-55
2020/12/30 20:19:22;;;;;;;31.50;12.60;;;;;;;0.01;64.23;99549.97;10459519;28;20049;-52
2020/12/30 20:24:23;;;;;;;32.92;10.57;;;;;;;0.02;64.45;99542.13;10458822;28;20072;-54
2020/12/30 20:29:25;;;;;;;22.05;7.55;;;;;;;-0.12;63.89;99540.16;10458260;28;20069;-54
2020/12/30 20:34:28;;;;;;;29.13;8.95;;;;;;;-0.16;64.59;99535.19;10458412;28;20049;-54
2020/12/30 20:39:29;;;;;;;31.13;10.13;;;;;;;-0.15;64.19;99535.13;10470229;28;20060;-53
2020/12/30 20:44:31;;;;;;;27.10;11.30;;;;;;;-0.16;64.71;99523.09;10499320;28;20053;-55
2020/12/30 20:49:34;;;;;;;27.60;10.90;;;;;;;-0.13;64.63;99522.97;10467295;28;20059;-55
2020/12/30 20:54:35;;;;;;;18.92;6.53;;;;;;;-0.08;64.84;99515.84;10456155;28;20049;-55
2020/12/30 20:59:37;;;;;;;19.02;7.13;;;;;;;-0.07;64.30;99521.84;10456792;28;20060;-59
2020/12/30 21:04:40;;;;;;;20.55;9.05;;;;;;;-0.13;64.64;99522.97;10457111;28;20071;-54
2020/12/30 21:09:43;;;;;;;30.20;11.13;;;;;;;-0.08;64.43;99513.28;10457735;28;20044;-54
2020/12/30 21:14:45;;;;;;;27.87;11.60;;;;;;;-0.08;64.65;99530.53;10456280;28;20140;-54
2020/12/30 21:19:47;;;;;;;29.63;9.88;;;;;;;-0.11;64.45;99521.16;10459316;28;20040;-54
2020/12/30 21:24:49;;;;;;;25.77;11.38;;;;;;;-0.06;64.14;99502.88;10457886;28;20474;-55
2020/12/30 21:29:51;;;;;;;22.00;9.07;;;;;;;-0.14;64.34;99516.13;10456744;28;20631;-58
2020/12/30 21:34:54;;;;;;;27.35;9.57;;;;;;;-0.16;64.28;99512.75;10457792;28;20106;-54
2020/12/30 21:39:56;;;;;;;30.45;11.85;;;;;;;-0.19;64.34;99501.72;10471788;28;20044;-54
2020/12/30 21:44:58;;;;;;;22.40;10.02;;;;;;;-0.18;64.36;99498.25;10494772;28;20381;-54
2020/12/30 21:50:01;;;;;;;20.35;7.55;;;;;;;-0.23;63.98;99490.69;10454590;28;20474;-53
2020/12/30 21:55:03;;;;;;;32.80;12.05;;;;;;;-0.16;63.83;99486.94;10455337;28;20092;-53
2020/12/30 22:00:05;;;;;;;28.30;10.75;;;;;;;-0.19;64.16;99476.72;10455195;28;20057;-55
2020/12/30 22:05:07;;;;;;;28.40;10.57;;;;;;;-0.30;63.93;99469.47;10455510;28;20040;-52
2020/12/30 22:10:09;;;;;;;36.28;12.15;;;;;;;-0.27;64.41;99468.50;10461217;28;20048;-54
2020/12/30 22:15:11;;;;;;;24.95;8.13;;;;;;;-0.23;64.39;99470.03;10463487;28;20045;-55
2020/12/30 22:20:13;;;;;;;34.35;13.05;;;;;;;-0.29;63.92;99450.47;10463388;28;20056;-54
2020/12/30 22:25:15;;;;;;;29.50;11.88;;;;;;;-0.28;64.12;99446.16;10465169;28;20106;-55
2020/12/30 22:30:16;;;;;;;28.08;11.73;;;;;;;-0.20;63.82;99450.97;10462853;28;20099;-54
2020/12/30 22:35:19;;;;;;;30.15;10.60;;;;;;;-0.24;63.95;99442.53;10462421;28;20075;-54
2020/12/30 22:40:21;;;;;;;31.08;12.48;;;;;;;-0.26;64.17;99454.66;10480934;28;20052;-54
2020/12/30 22:45:22;;;;;;;26.48;8.88;;;;;;;-0.32;63.79;99439.44;10501393;28;20441;-53
2020/12/30 22:50:25;;;;;;;29.65;10.23;;;;;;;-0.33;63.96;99433.44;10462403;28;20493;-53
2020/12/30 22:55:26;;;;;;;27.88;8.38;;;;;;;-0.38;64.09;99440.56;10462577;28;20496;-54
2020/12/30 23:00:28;;;;;;;19.63;8.05;;;;;;;-0.41;64.23;99434.69;10461213;28;20515;-54
2020/12/30 23:05:31;;;;;;;15.05;6.03;;;;;;;-0.47;64.27;99439.22;10461553;28;20110;-54
2020/12/30 23:10:32;;;;;;;25.98;8.68;;;;;;;-0.56;64.25;99431.88;10461580;28;20080;-59